sensor_id;sensor_type;location;lat;lon;timestamp;P1;durP1;ratioP1;P2;durP2;ratioP2
39896;SDS011;25567;48.276;14.242;2022-08-14T00:01:44;11.82;;;5.78;;
39896;SDS011;25567;48.276;14.242;2022-08-14T00:04:21;10.25;;;5.60;;
39896;SDS011;25567;48.276;14.242;2022-08-14T00:07:06;10.00;;;6.27;;
39896;SDS011;25567;48.276;14.242;2022-08-14T00:09:34;6.57;;;5.50;;
39896;SDS011;25567;48.276;14.242;2022-08-14T00:12:20;10.75;;;6.00;;
39896;SDS011;25567;48.276;14.242;2022-08-14T00:14:50;10.48;;;6.43;;
39896;SDS011;25567;48.276;14.242;2022-08-14T00:17:20;10.32;;;6.03;;
39896;SDS011;25567;48.276;14.242;2022-08-14T00:19:48;10.40;;;6.25;;
39896;SDS011;25567;48.276;14.242;2022-08-14T00:22:17;9.65;;;5.65;;
39896;SDS011;25567;48.276;14.242;2022-08-14T00:25:05;10.32;;;6.13;;
39896;SDS011;25567;48.276;14.242;2022-08-14T00:27:34;11.38;;;6.80;;
39896;SDS011;25567;48.276;14.242;2022-08-14T00:30:05;12.32;;;6.15;;
39896;SDS011;25567;48.276;14.242;2022-08-14T00:32:36;8.45;;;5.82;;
39896;SDS011;25567;48.276;14.242;2022-08-14T00:35:21;9.43;;;6.32;;
39896;SDS011;25567;48.276;14.242;2022-08-14T00:38:07;8.70;;;5.88;;
39896;SDS011;25567;48.276;14.242;2022-08-14T00:40:35;9.50;;;5.90;;
39896;SDS011;25567;48.276;14.242;2022-08-14T00:43:02;10.30;;;6.75;;
39896;SDS011;25567;48.276;14.242;2022-08-14T00:45:29;10.13;;;5.93;;
39896;SDS011;25567;48.276;14.242;2022-08-14T00:47:56;9.75;;;6.68;;
39896;SDS011;25567;48.276;14.242;2022-08-14T00:50:25;11.93;;;6.30;;
39896;SDS011;25567;48.276;14.242;2022-08-14T00:52:54;11.98;;;6.53;;
39896;SDS011;25567;48.276;14.242;2022-08-14T00:55:21;8.15;;;5.97;;
39896;SDS011;25567;48.276;14.242;2022-08-14T00:57:48;14.25;;;6.82;;
39896;SDS011;25567;48.276;14.242;2022-08-14T01:00:35;11.98;;;6.47;;
39896;SDS011;25567;48.276;14.242;2022-08-14T01:03:17;11.20;;;7.30;;
39896;SDS011;25567;48.276;14.242;2022-08-14T01:05:45;11.15;;;6.80;;
39896;SDS011;25567;48.276;14.242;2022-08-14T01:08:18;10.55;;;6.53;;
39896;SDS011;25567;48.276;14.242;2022-08-14T01:11:07;10.10;;;6.55;;
39896;SDS011;25567;48.276;14.242;2022-08-14T01:13:36;12.32;;;6.90;;
39896;SDS011;25567;48.276;14.242;2022-08-14T01:16:09;9.05;;;6.63;;
39896;SDS011;25567;48.276;14.242;2022-08-14T01:18:40;11.82;;;7.40;;
39896;SDS011;25567;48.276;14.242;2022-08-14T01:21:32;10.05;;;6.80;;
39896;SDS011;25567;48.276;14.242;2022-08-14T01:24:12;15.15;;;6.68;;
39896;SDS011;25567;48.276;14.242;2022-08-14T01:26:56;10.45;;;6.60;;
39896;SDS011;25567;48.276;14.242;2022-08-14T01:29:26;9.77;;;6.35;;
39896;SDS011;25567;48.276;14.242;2022-08-14T01:32:15;9.70;;;6.40;;
39896;SDS011;25567;48.276;14.242;2022-08-14T01:34:49;9.27;;;6.22;;
39896;SDS011;25567;48.276;14.242;2022-08-14T01:37:42;10.73;;;6.70;;
39896;SDS011;25567;48.276;14.242;2022-08-14T01:40:22;11.35;;;6.00;;
39896;SDS011;25567;48.276;14.242;2022-08-14T01:42:58;10.70;;;7.32;;
39896;SDS011;25567;48.276;14.242;2022-08-14T01:45:27;10.65;;;6.85;;
39896;SDS011;25567;48.276;14.242;2022-08-14T01:47:56;15.63;;;7.63;;
39896;SDS011;25567;48.276;14.242;2022-08-14T01:50:29;11.25;;;6.75;;
39896;SDS011;25567;48.276;14.242;2022-08-14T01:52:59;10.73;;;6.63;;
39896;SDS011;25567;48.276;14.242;2022-08-14T01:55:27;9.73;;;6.82;;
39896;SDS011;25567;48.276;14.242;2022-08-14T01:57:58;11.15;;;7.32;;
39896;SDS011;25567;48.276;14.242;2022-08-14T02:00:45;14.40;;;7.78;;
39896;SDS011;25567;48.276;14.242;2022-08-14T02:03:21;12.35;;;7.03;;
39896;SDS011;25567;48.276;14.242;2022-08-14T02:05:56;14.27;;;7.30;;
39896;SDS011;25567;48.276;14.242;2022-08-14T02:08:29;12.07;;;7.47;;
39896;SDS011;25567;48.276;14.242;2022-08-14T02:11:01;12.88;;;7.20;;
39896;SDS011;25567;48.276;14.242;2022-08-14T02:13:44;11.45;;;7.40;;
39896;SDS011;25567;48.276;14.242;2022-08-14T02:16:16;12.85;;;7.47;;
39896;SDS011;25567;48.276;14.242;2022-08-14T02:18:48;14.00;;;8.27;;
39896;SDS011;25567;48.276;14.242;2022-08-14T02:21:15;13.95;;;7.70;;
39896;SDS011;25567;48.276;14.242;2022-08-14T02:23:46;9.85;;;6.90;;
39896;SDS011;25567;48.276;14.242;2022-08-14T02:26:23;10.30;;;6.70;;
39896;SDS011;25567;48.276;14.242;2022-08-14T02:28:58;11.85;;;6.40;;
39896;SDS011;25567;48.276;14.242;2022-08-14T02:31:29;12.50;;;7.18;;
39896;SDS011;25567;48.276;14.242;2022-08-14T02:36:52;12.70;;;7.90;;
39896;SDS011;25567;48.276;14.242;2022-08-14T02:39:32;14.40;;;8.40;;
39896;SDS011;25567;48.276;14.242;2022-08-14T02:42:03;14.57;;;8.23;;
39896;SDS011;25567;48.276;14.242;2022-08-14T02:44:31;17.65;;;7.88;;
39896;SDS011;25567;48.276;14.242;2022-08-14T02:47:05;13.82;;;8.63;;
39896;SDS011;25567;48.276;14.242;2022-08-14T02:49:44;15.23;;;9.18;;
39896;SDS011;25567;48.276;14.242;2022-08-14T02:52:16;19.42;;;9.45;;
39896;SDS011;25567;48.276;14.242;2022-08-14T02:57:32;14.95;;;7.90;;
39896;SDS011;25567;48.276;14.242;2022-08-14T03:00:05;18.27;;;8.30;;
39896;SDS011;25567;48.276;14.242;2022-08-14T03:02:35;12.80;;;7.78;;
39896;SDS011;25567;48.276;14.242;2022-08-14T03:07:48;13.05;;;7.90;;
39896;SDS011;25567;48.276;14.242;2022-08-14T03:10:18;16.95;;;8.40;;
39896;SDS011;25567;48.276;14.242;2022-08-14T03:12:53;19.43;;;8.97;;
39896;SDS011;25567;48.276;14.242;2022-08-14T03:15:20;17.77;;;9.13;;
39896;SDS011;25567;48.276;14.242;2022-08-14T03:17:47;14.27;;;8.10;;
39896;SDS011;25567;48.276;14.242;2022-08-14T03:20:23;15.40;;;8.63;;
39896;SDS011;25567;48.276;14.242;2022-08-14T03:22:52;15.38;;;7.68;;
39896;SDS011;25567;48.276;14.242;2022-08-14T03:25:19;14.15;;;8.10;;
39896;SDS011;25567;48.276;14.242;2022-08-14T03:27:47;13.38;;;7.97;;
39896;SDS011;25567;48.276;14.242;2022-08-14T03:30:24;12.60;;;8.40;;
39896;SDS011;25567;48.276;14.242;2022-08-14T03:33:07;17.00;;;8.65;;
39896;SDS011;25567;48.276;14.242;2022-08-14T03:35:36;19.25;;;8.90;;
39896;SDS011;25567;48.276;14.242;2022-08-14T03:38:25;18.38;;;8.70;;
39896;SDS011;25567;48.276;14.242;2022-08-14T03:41:12;16.35;;;9.30;;
39896;SDS011;25567;48.276;14.242;2022-08-14T03:43:42;14.45;;;8.88;;
39896;SDS011;25567;48.276;14.242;2022-08-14T03:46:10;16.83;;;9.00;;
39896;SDS011;25567;48.276;14.242;2022-08-14T03:48:58;21.90;;;9.07;;
39896;SDS011;25567;48.276;14.242;2022-08-14T03:51:28;16.45;;;9.43;;
39896;SDS011;25567;48.276;14.242;2022-08-14T03:53:55;18.20;;;9.65;;
39896;SDS011;25567;48.276;14.242;2022-08-14T03:56:24;13.30;;;8.93;;
39896;SDS011;25567;48.276;14.242;2022-08-14T03:58:54;20.80;;;9.63;;
39896;SDS011;25567;48.276;14.242;2022-08-14T04:01:25;16.60;;;8.52;;
39896;SDS011;25567;48.276;14.242;2022-08-14T04:04:04;14.40;;;8.40;;
39896;SDS011;25567;48.276;14.242;2022-08-14T04:06:33;20.92;;;9.50;;
39896;SDS011;25567;48.276;14.242;2022-08-14T04:09:13;17.00;;;8.95;;
39896;SDS011;25567;48.276;14.242;2022-08-14T04:11:42;13.65;;;8.93;;
39896;SDS011;25567;48.276;14.242;2022-08-14T04:14:10;17.90;;;7.65;;
39896;SDS011;25567;48.276;14.242;2022-08-14T04:16:41;15.95;;;9.05;;
39896;SDS011;25567;48.276;14.242;2022-08-14T04:19:12;15.55;;;8.68;;
39896;SDS011;25567;48.276;14.242;2022-08-14T04:21:42;16.08;;;9.13;;
39896;SDS011;25567;48.276;14.242;2022-08-14T04:24:29;16.92;;;9.40;;
39896;SDS011;25567;48.276;14.242;2022-08-14T04:27:05;14.02;;;8.90;;
39896;SDS011;25567;48.276;14.242;2022-08-14T04:29:35;19.08;;;8.93;;
39896;SDS011;25567;48.276;14.242;2022-08-14T04:32:04;20.55;;;10.27;;
39896;SDS011;25567;48.276;14.242;2022-08-14T04:34:53;17.50;;;9.32;;
39896;SDS011;25567;48.276;14.242;2022-08-14T04:37:21;19.35;;;9.98;;
39896;SDS011;25567;48.276;14.242;2022-08-14T04:40:06;15.13;;;9.60;;
39896;SDS011;25567;48.276;14.242;2022-08-14T04:42:53;20.10;;;9.27;;
39896;SDS011;25567;48.276;14.242;2022-08-14T04:45:42;23.25;;;9.80;;
39896;SDS011;25567;48.276;14.242;2022-08-14T04:48:11;19.85;;;10.55;;
39896;SDS011;25567;48.276;14.242;2022-08-14T04:50:59;15.70;;;9.85;;
39896;SDS011;25567;48.276;14.242;2022-08-14T04:53:29;21.80;;;10.00;;
39896;SDS011;25567;48.276;14.242;2022-08-14T04:56:01;24.15;;;10.88;;
39896;SDS011;25567;48.276;14.242;2022-08-14T04:58:36;22.38;;;9.80;;
39896;SDS011;25567;48.276;14.242;2022-08-14T05:01:05;20.05;;;9.88;;
39896;SDS011;25567;48.276;14.242;2022-08-14T05:03:44;21.75;;;9.98;;
39896;SDS011;25567;48.276;14.242;2022-08-14T05:06:12;23.42;;;10.98;;
39896;SDS011;25567;48.276;14.242;2022-08-14T05:08:59;19.85;;;9.93;;
39896;SDS011;25567;48.276;14.242;2022-08-14T05:11:26;17.65;;;10.70;;
39896;SDS011;25567;48.276;14.242;2022-08-14T05:13:53;17.55;;;10.27;;
39896;SDS011;25567;48.276;14.242;2022-08-14T05:16:41;18.20;;;10.63;;
39896;SDS011;25567;48.276;14.242;2022-08-14T05:19:12;26.75;;;9.93;;
39896;SDS011;25567;48.276;14.242;2022-08-14T05:21:50;21.08;;;9.93;;
39896;SDS011;25567;48.276;14.242;2022-08-14T05:24:24;30.00;;;11.52;;
39896;SDS011;25567;48.276;14.242;2022-08-14T05:26:51;22.67;;;10.77;;
39896;SDS011;25567;48.276;14.242;2022-08-14T05:29:18;18.63;;;11.30;;
39896;SDS011;25567;48.276;14.242;2022-08-14T05:31:45;24.10;;;10.60;;
39896;SDS011;25567;48.276;14.242;2022-08-14T05:34:12;19.20;;;10.45;;
39896;SDS011;25567;48.276;14.242;2022-08-14T05:36:41;17.92;;;10.30;;
39896;SDS011;25567;48.276;14.242;2022-08-14T05:39:19;23.92;;;10.90;;
39896;SDS011;25567;48.276;14.242;2022-08-14T05:41:46;20.90;;;11.35;;
39896;SDS011;25567;48.276;14.242;2022-08-14T05:44:19;23.77;;;10.85;;
39896;SDS011;25567;48.276;14.242;2022-08-14T05:46:46;17.10;;;10.65;;
39896;SDS011;25567;48.276;14.242;2022-08-14T05:49:12;19.42;;;10.23;;
39896;SDS011;25567;48.276;14.242;2022-08-14T05:51:40;18.05;;;9.48;;
39896;SDS011;25567;48.276;14.242;2022-08-14T05:54:06;14.57;;;9.70;;
39896;SDS011;25567;48.276;14.242;2022-08-14T05:56:50;17.80;;;10.23;;
39896;SDS011;25567;48.276;14.242;2022-08-14T05:59:17;18.02;;;9.63;;
39896;SDS011;25567;48.276;14.242;2022-08-14T06:01:44;16.05;;;10.55;;
39896;SDS011;25567;48.276;14.242;2022-08-14T06:04:11;15.93;;;10.95;;
39896;SDS011;25567;48.276;14.242;2022-08-14T06:06:40;15.05;;;10.20;;
39896;SDS011;25567;48.276;14.242;2022-08-14T06:09:08;15.43;;;10.10;;
39896;SDS011;25567;48.276;14.242;2022-08-14T06:11:35;21.98;;;10.93;;
39896;SDS011;25567;48.276;14.242;2022-08-14T06:14:03;19.38;;;9.93;;
39896;SDS011;25567;48.276;14.242;2022-08-14T06:16:37;14.57;;;9.82;;
39896;SDS011;25567;48.276;14.242;2022-08-14T06:19:06;17.00;;;10.18;;
39896;SDS011;25567;48.276;14.242;2022-08-14T06:21:36;18.08;;;10.82;;
39896;SDS011;25567;48.276;14.242;2022-08-14T06:24:06;18.83;;;10.18;;
39896;SDS011;25567;48.276;14.242;2022-08-14T06:26:43;17.42;;;10.40;;
39896;SDS011;25567;48.276;14.242;2022-08-14T06:29:21;14.90;;;10.85;;
39896;SDS011;25567;48.276;14.242;2022-08-14T06:31:48;14.23;;;10.00;;
39896;SDS011;25567;48.276;14.242;2022-08-14T06:34:25;18.15;;;10.25;;
39896;SDS011;25567;48.276;14.242;2022-08-14T06:39:42;16.67;;;10.40;;
39896;SDS011;25567;48.276;14.242;2022-08-14T06:42:09;20.08;;;10.65;;
39896;SDS011;25567;48.276;14.242;2022-08-14T06:44:56;18.23;;;9.93;;
39896;SDS011;25567;48.276;14.242;2022-08-14T06:47:23;15.82;;;11.07;;
39896;SDS011;25567;48.276;14.242;2022-08-14T06:49:50;16.27;;;10.50;;
39896;SDS011;25567;48.276;14.242;2022-08-14T06:52:23;16.92;;;10.88;;
39896;SDS011;25567;48.276;14.242;2022-08-14T06:54:50;15.90;;;10.73;;
39896;SDS011;25567;48.276;14.242;2022-08-14T06:57:17;17.50;;;10.80;;
39896;SDS011;25567;48.276;14.242;2022-08-14T06:59:46;18.17;;;10.85;;
39896;SDS011;25567;48.276;14.242;2022-08-14T07:02:15;22.00;;;11.68;;
39896;SDS011;25567;48.276;14.242;2022-08-14T07:04:57;18.42;;;11.45;;
39896;SDS011;25567;48.276;14.242;2022-08-14T07:07:48;15.10;;;10.63;;
39896;SDS011;25567;48.276;14.242;2022-08-14T07:10:16;16.00;;;10.77;;
39896;SDS011;25567;48.276;14.242;2022-08-14T07:12:43;17.63;;;11.40;;
39896;SDS011;25567;48.276;14.242;2022-08-14T07:15:30;32.92;;;11.38;;
39896;SDS011;25567;48.276;14.242;2022-08-14T07:17:59;17.13;;;11.25;;
39896;SDS011;25567;48.276;14.242;2022-08-14T07:20:34;23.73;;;11.25;;
39896;SDS011;25567;48.276;14.242;2022-08-14T07:23:01;18.73;;;10.40;;
39896;SDS011;25567;48.276;14.242;2022-08-14T07:25:35;18.30;;;10.85;;
39896;SDS011;25567;48.276;14.242;2022-08-14T07:30:51;23.35;;;11.20;;
39896;SDS011;25567;48.276;14.242;2022-08-14T07:33:32;20.58;;;10.88;;
39896;SDS011;25567;48.276;14.242;2022-08-14T07:36:15;16.90;;;10.65;;
39896;SDS011;25567;48.276;14.242;2022-08-14T07:38:57;21.58;;;10.90;;
39896;SDS011;25567;48.276;14.242;2022-08-14T07:41:25;18.80;;;11.55;;
39896;SDS011;25567;48.276;14.242;2022-08-14T07:43:59;15.98;;;10.18;;
39896;SDS011;25567;48.276;14.242;2022-08-14T07:46:47;21.63;;;11.50;;
39896;SDS011;25567;48.276;14.242;2022-08-14T07:49:15;20.08;;;11.20;;
39896;SDS011;25567;48.276;14.242;2022-08-14T07:51:43;22.02;;;10.77;;
39896;SDS011;25567;48.276;14.242;2022-08-14T07:54:15;21.02;;;11.50;;
39896;SDS011;25567;48.276;14.242;2022-08-14T07:56:54;22.20;;;11.90;;
39896;SDS011;25567;48.276;14.242;2022-08-14T07:59:22;24.98;;;13.23;;
39896;SDS011;25567;48.276;14.242;2022-08-14T08:02:09;21.17;;;11.02;;
39896;SDS011;25567;48.276;14.242;2022-08-14T08:04:46;23.20;;;11.55;;
39896;SDS011;25567;48.276;14.242;2022-08-14T08:07:18;22.90;;;10.85;;
39896;SDS011;25567;48.276;14.242;2022-08-14T08:09:48;18.70;;;10.68;;
39896;SDS011;25567;48.276;14.242;2022-08-14T08:12:18;19.75;;;11.65;;
39896;SDS011;25567;48.276;14.242;2022-08-14T08:14:53;26.15;;;10.93;;
39896;SDS011;25567;48.276;14.242;2022-08-14T08:17:31;21.33;;;10.93;;
39896;SDS011;25567;48.276;14.242;2022-08-14T08:20:00;22.00;;;12.05;;
39896;SDS011;25567;48.276;14.242;2022-08-14T08:22:26;20.17;;;11.35;;
39896;SDS011;25567;48.276;14.242;2022-08-14T08:24:57;25.60;;;11.95;;
39896;SDS011;25567;48.276;14.242;2022-08-14T08:27:25;20.85;;;11.75;;
39896;SDS011;25567;48.276;14.242;2022-08-14T08:30:01;20.80;;;11.20;;
39896;SDS011;25567;48.276;14.242;2022-08-14T08:32:38;19.08;;;10.90;;
39896;SDS011;25567;48.276;14.242;2022-08-14T08:38:12;18.88;;;10.20;;
39896;SDS011;25567;48.276;14.242;2022-08-14T08:41:02;20.05;;;10.38;;
39896;SDS011;25567;48.276;14.242;2022-08-14T08:43:30;19.25;;;10.35;;
39896;SDS011;25567;48.276;14.242;2022-08-14T08:48:50;15.68;;;10.07;;
39896;SDS011;25567;48.276;14.242;2022-08-14T08:51:23;17.10;;;9.73;;
39896;SDS011;25567;48.276;14.242;2022-08-14T08:54:04;17.92;;;10.00;;
39896;SDS011;25567;48.276;14.242;2022-08-14T09:02:01;19.00;;;10.77;;
39896;SDS011;25567;48.276;14.242;2022-08-14T09:04:35;17.50;;;10.63;;
39896;SDS011;25567;48.276;14.242;2022-08-14T09:07:18;18.65;;;10.88;;
39896;SDS011;25567;48.276;14.242;2022-08-14T09:09:59;17.42;;;10.00;;
39896;SDS011;25567;48.276;14.242;2022-08-14T09:12:28;16.33;;;9.60;;
39896;SDS011;25567;48.276;14.242;2022-08-14T09:15:00;16.45;;;10.10;;
39896;SDS011;25567;48.276;14.242;2022-08-14T09:17:28;13.52;;;9.43;;
39896;SDS011;25567;48.276;14.242;2022-08-14T09:19:55;15.75;;;10.30;;
39896;SDS011;25567;48.276;14.242;2022-08-14T09:22:27;16.23;;;10.10;;
39896;SDS011;25567;48.276;14.242;2022-08-14T09:25:02;15.85;;;9.70;;
39896;SDS011;25567;48.276;14.242;2022-08-14T09:27:33;11.52;;;8.23;;
39896;SDS011;25567;48.276;14.242;2022-08-14T09:30:00;16.65;;;9.27;;
39896;SDS011;25567;48.276;14.242;2022-08-14T09:41:29;16.52;;;8.50;;
39896;SDS011;25567;48.276;14.242;2022-08-14T09:47:11;16.23;;;9.15;;
39896;SDS011;25567;48.276;14.242;2022-08-14T09:49:39;14.07;;;9.43;;
39896;SDS011;25567;48.276;14.242;2022-08-14T09:52:09;15.65;;;8.48;;
39896;SDS011;25567;48.276;14.242;2022-08-14T09:54:56;13.25;;;8.90;;
39896;SDS011;25567;48.276;14.242;2022-08-14T09:57:25;12.82;;;8.60;;
39896;SDS011;25567;48.276;14.242;2022-08-14T09:59:55;52.53;;;10.30;;
39896;SDS011;25567;48.276;14.242;2022-08-14T10:02:27;13.63;;;8.82;;
39896;SDS011;25567;48.276;14.242;2022-08-14T10:04:58;12.55;;;9.05;;
39896;SDS011;25567;48.276;14.242;2022-08-14T10:07:35;15.32;;;8.70;;
39896;SDS011;25567;48.276;14.242;2022-08-14T10:10:12;11.95;;;8.20;;
39896;SDS011;25567;48.276;14.242;2022-08-14T10:12:49;16.80;;;9.05;;
39896;SDS011;25567;48.276;14.242;2022-08-14T10:15:21;13.75;;;9.25;;
39896;SDS011;25567;48.276;14.242;2022-08-14T10:18:01;13.50;;;9.18;;
39896;SDS011;25567;48.276;14.242;2022-08-14T10:23:21;13.52;;;9.02;;
39896;SDS011;25567;48.276;14.242;2022-08-14T10:25:52;12.27;;;8.52;;
39896;SDS011;25567;48.276;14.242;2022-08-14T10:28:24;12.18;;;8.95;;
39896;SDS011;25567;48.276;14.242;2022-08-14T10:31:18;11.50;;;7.80;;
39896;SDS011;25567;48.276;14.242;2022-08-14T10:36:39;12.27;;;8.95;;
39896;SDS011;25567;48.276;14.242;2022-08-14T10:39:21;17.73;;;9.27;;
39896;SDS011;25567;48.276;14.242;2022-08-14T10:41:59;12.90;;;8.52;;
39896;SDS011;25567;48.276;14.242;2022-08-14T10:44:46;13.57;;;8.27;;
39896;SDS011;25567;48.276;14.242;2022-08-14T10:47:17;14.85;;;9.00;;
39896;SDS011;25567;48.276;14.242;2022-08-14T10:50:05;13.38;;;8.40;;
39896;SDS011;25567;48.276;14.242;2022-08-14T10:52:37;10.75;;;8.10;;
39896;SDS011;25567;48.276;14.242;2022-08-14T11:00:23;19.58;;;9.23;;
39896;SDS011;25567;48.276;14.242;2022-08-14T11:03:04;11.90;;;7.60;;
39896;SDS011;25567;48.276;14.242;2022-08-14T11:05:44;12.15;;;8.13;;
39896;SDS011;25567;48.276;14.242;2022-08-14T11:08:31;14.50;;;8.90;;
39896;SDS011;25567;48.276;14.242;2022-08-14T11:10:59;15.85;;;8.48;;
39896;SDS011;25567;48.276;14.242;2022-08-14T11:13:30;24.67;;;10.35;;
39896;SDS011;25567;48.276;14.242;2022-08-14T11:15:59;19.83;;;10.45;;
39896;SDS011;25567;48.276;14.242;2022-08-14T11:18:27;17.95;;;11.15;;
39896;SDS011;25567;48.276;14.242;2022-08-14T11:21:05;19.08;;;11.23;;
39896;SDS011;25567;48.276;14.242;2022-08-14T11:23:35;18.60;;;11.27;;
39896;SDS011;25567;48.276;14.242;2022-08-14T11:26:08;18.77;;;10.68;;
39896;SDS011;25567;48.276;14.242;2022-08-14T11:28:37;19.38;;;10.52;;
39896;SDS011;25567;48.276;14.242;2022-08-14T11:31:14;20.48;;;11.80;;
39896;SDS011;25567;48.276;14.242;2022-08-14T11:33:47;20.33;;;12.20;;
39896;SDS011;25567;48.276;14.242;2022-08-14T11:36:14;20.25;;;11.63;;
39896;SDS011;25567;48.276;14.242;2022-08-14T11:38:44;19.08;;;11.63;;
39896;SDS011;25567;48.276;14.242;2022-08-14T11:41:12;20.45;;;11.68;;
39896;SDS011;25567;48.276;14.242;2022-08-14T11:43:43;23.83;;;12.00;;
39896;SDS011;25567;48.276;14.242;2022-08-14T11:46:24;20.60;;;11.75;;
39896;SDS011;25567;48.276;14.242;2022-08-14T11:49:03;18.05;;;11.40;;
39896;SDS011;25567;48.276;14.242;2022-08-14T11:51:31;19.77;;;10.07;;
39896;SDS011;25567;48.276;14.242;2022-08-14T11:54:18;17.55;;;10.13;;
39896;SDS011;25567;48.276;14.242;2022-08-14T11:57:00;13.98;;;8.70;;
39896;SDS011;25567;48.276;14.242;2022-08-14T11:59:27;12.45;;;8.38;;
39896;SDS011;25567;48.276;14.242;2022-08-14T12:05:02;16.10;;;8.82;;
39896;SDS011;25567;48.276;14.242;2022-08-14T12:07:35;15.77;;;10.15;;
39896;SDS011;25567;48.276;14.242;2022-08-14T12:10:13;13.65;;;9.98;;
39896;SDS011;25567;48.276;14.242;2022-08-14T12:12:52;14.10;;;9.10;;
39896;SDS011;25567;48.276;14.242;2022-08-14T12:15:30;13.93;;;9.00;;
39896;SDS011;25567;48.276;14.242;2022-08-14T12:18:01;13.23;;;9.30;;
39896;SDS011;25567;48.276;14.242;2022-08-14T12:20:30;16.02;;;9.80;;
39896;SDS011;25567;48.276;14.242;2022-08-14T12:23:00;12.90;;;8.38;;
39896;SDS011;25567;48.276;14.242;2022-08-14T12:25:31;13.95;;;9.27;;
39896;SDS011;25567;48.276;14.242;2022-08-14T12:28:01;15.30;;;8.50;;
39896;SDS011;25567;48.276;14.242;2022-08-14T12:30:33;12.98;;;9.02;;
39896;SDS011;25567;48.276;14.242;2022-08-14T12:33:06;15.20;;;9.35;;
39896;SDS011;25567;48.276;14.242;2022-08-14T12:35:58;16.17;;;8.82;;
39896;SDS011;25567;48.276;14.242;2022-08-14T12:41:01;15.55;;;9.18;;
39896;SDS011;25567;48.276;14.242;2022-08-14T12:43:42;17.83;;;9.27;;
39896;SDS011;25567;48.276;14.242;2022-08-14T12:46:18;16.38;;;9.85;;
39896;SDS011;25567;48.276;14.242;2022-08-14T12:48:54;14.35;;;9.68;;
39896;SDS011;25567;48.276;14.242;2022-08-14T12:51:23;15.77;;;10.23;;
39896;SDS011;25567;48.276;14.242;2022-08-14T12:53:53;14.98;;;9.98;;
39896;SDS011;25567;48.276;14.242;2022-08-14T12:56:25;15.45;;;9.70;;
39896;SDS011;25567;48.276;14.242;2022-08-14T12:58:59;16.23;;;11.10;;
39896;SDS011;25567;48.276;14.242;2022-08-14T13:01:28;15.75;;;9.15;;
39896;SDS011;25567;48.276;14.242;2022-08-14T13:04:17;11.40;;;8.20;;
39896;SDS011;25567;48.276;14.242;2022-08-14T13:06:48;13.90;;;8.65;;
39896;SDS011;25567;48.276;14.242;2022-08-14T13:09:19;12.07;;;8.50;;
39896;SDS011;25567;48.276;14.242;2022-08-14T13:11:50;13.70;;;9.00;;
39896;SDS011;25567;48.276;14.242;2022-08-14T13:14:40;13.55;;;8.52;;
39896;SDS011;25567;48.276;14.242;2022-08-14T13:17:13;19.35;;;12.18;;
39896;SDS011;25567;48.276;14.242;2022-08-14T13:19:41;19.42;;;12.15;;
39896;SDS011;25567;48.276;14.242;2022-08-14T13:22:11;19.77;;;12.23;;
39896;SDS011;25567;48.276;14.242;2022-08-14T13:24:58;18.23;;;11.80;;
39896;SDS011;25567;48.276;14.242;2022-08-14T13:27:31;64.97;;;27.00;;
39896;SDS011;25567;48.276;14.242;2022-08-14T13:30:05;42.83;;;22.58;;
39896;SDS011;25567;48.276;14.242;2022-08-14T13:32:40;29.57;;;14.17;;
39896;SDS011;25567;48.276;14.242;2022-08-14T13:35:11;31.40;;;18.27;;
39896;SDS011;25567;48.276;14.242;2022-08-14T13:37:43;40.13;;;20.25;;
39896;SDS011;25567;48.276;14.242;2022-08-14T13:40:13;21.55;;;11.68;;
39896;SDS011;25567;48.276;14.242;2022-08-14T13:42:43;81.20;;;31.38;;
39896;SDS011;25567;48.276;14.242;2022-08-14T13:45:18;35.78;;;15.57;;
39896;SDS011;25567;48.276;14.242;2022-08-14T13:48:09;34.25;;;12.75;;
39896;SDS011;25567;48.276;14.242;2022-08-14T13:50:56;15.85;;;8.93;;
39896;SDS011;25567;48.276;14.242;2022-08-14T13:53:26;17.70;;;9.10;;
39896;SDS011;25567;48.276;14.242;2022-08-14T13:55:58;13.93;;;8.43;;
39896;SDS011;25567;48.276;14.242;2022-08-14T13:58:27;14.32;;;8.65;;
39896;SDS011;25567;48.276;14.242;2022-08-14T14:01:00;12.68;;;8.70;;
39896;SDS011;25567;48.276;14.242;2022-08-14T14:03:29;12.23;;;7.70;;
39896;SDS011;25567;48.276;14.242;2022-08-14T14:06:01;12.98;;;8.00;;
39896;SDS011;25567;48.276;14.242;2022-08-14T14:08:28;11.45;;;8.15;;
39896;SDS011;25567;48.276;14.242;2022-08-14T14:11:12;35.60;;;9.68;;
39896;SDS011;25567;48.276;14.242;2022-08-14T14:13:41;17.20;;;8.70;;
39896;SDS011;25567;48.276;14.242;2022-08-14T14:16:11;13.00;;;8.75;;
39896;SDS011;25567;48.276;14.242;2022-08-14T14:18:47;14.45;;;8.45;;
39896;SDS011;25567;48.276;14.242;2022-08-14T14:21:18;14.02;;;9.15;;
39896;SDS011;25567;48.276;14.242;2022-08-14T14:23:47;12.68;;;8.18;;
39896;SDS011;25567;48.276;14.242;2022-08-14T14:26:14;15.60;;;8.38;;
39896;SDS011;25567;48.276;14.242;2022-08-14T14:28:49;15.57;;;9.15;;
39896;SDS011;25567;48.276;14.242;2022-08-14T14:31:20;13.00;;;8.18;;
39896;SDS011;25567;48.276;14.242;2022-08-14T14:33:57;26.95;;;9.20;;
39896;SDS011;25567;48.276;14.242;2022-08-14T14:36:26;12.07;;;8.50;;
39896;SDS011;25567;48.276;14.242;2022-08-14T14:38:56;12.32;;;7.63;;
39896;SDS011;25567;48.276;14.242;2022-08-14T14:41:30;11.77;;;7.75;;
39896;SDS011;25567;48.276;14.242;2022-08-14T14:44:04;10.18;;;7.07;;
39896;SDS011;25567;48.276;14.242;2022-08-14T14:46:35;13.20;;;8.32;;
39896;SDS011;25567;48.276;14.242;2022-08-14T14:49:07;11.88;;;7.82;;
39896;SDS011;25567;48.276;14.242;2022-08-14T14:51:40;12.43;;;7.38;;
39896;SDS011;25567;48.276;14.242;2022-08-14T14:54:18;10.90;;;7.72;;
39896;SDS011;25567;48.276;14.242;2022-08-14T14:56:59;15.45;;;7.60;;
39896;SDS011;25567;48.276;14.242;2022-08-14T14:59:28;12.70;;;7.55;;
39896;SDS011;25567;48.276;14.242;2022-08-14T15:01:59;12.88;;;7.90;;
39896;SDS011;25567;48.276;14.242;2022-08-14T15:04:34;13.88;;;7.15;;
39896;SDS011;25567;48.276;14.242;2022-08-14T15:07:04;11.57;;;7.93;;
39896;SDS011;25567;48.276;14.242;2022-08-14T15:09:32;13.90;;;7.97;;
39896;SDS011;25567;48.276;14.242;2022-08-14T15:11:59;11.38;;;7.47;;
39896;SDS011;25567;48.276;14.242;2022-08-14T15:14:48;13.60;;;7.93;;
39896;SDS011;25567;48.276;14.242;2022-08-14T15:17:23;11.85;;;7.20;;
39896;SDS011;25567;48.276;14.242;2022-08-14T15:19:53;11.77;;;7.75;;
39896;SDS011;25567;48.276;14.242;2022-08-14T15:22:22;11.18;;;7.68;;
39896;SDS011;25567;48.276;14.242;2022-08-14T15:24:50;11.18;;;7.72;;
39896;SDS011;25567;48.276;14.242;2022-08-14T15:27:17;10.55;;;7.65;;
39896;SDS011;25567;48.276;14.242;2022-08-14T15:29:52;12.57;;;8.32;;
39896;SDS011;25567;48.276;14.242;2022-08-14T15:32:19;10.85;;;7.88;;
39896;SDS011;25567;48.276;14.242;2022-08-14T15:34:48;10.63;;;7.57;;
39896;SDS011;25567;48.276;14.242;2022-08-14T15:37:19;10.30;;;7.32;;
39896;SDS011;25567;48.276;14.242;2022-08-14T15:39:48;13.40;;;8.63;;
39896;SDS011;25567;48.276;14.242;2022-08-14T15:42:18;11.02;;;7.15;;
39896;SDS011;25567;48.276;14.242;2022-08-14T15:44:47;13.02;;;7.57;;
39896;SDS011;25567;48.276;14.242;2022-08-14T15:47:28;15.77;;;8.43;;
39896;SDS011;25567;48.276;14.242;2022-08-14T15:49:57;13.85;;;8.07;;